sensor_id;sensor_type;location;lat;lon;timestamp;P1;durP1;ratioP1;P2;durP2;ratioP2
60714;SDS011;46564;53.096;8.246;2023-03-01T00:02:07;1.88;;;1.13;;
60714;SDS011;46564;53.096;8.246;2023-03-01T00:07:09;1.02;;;0.98;;
60714;SDS011;46564;53.096;8.246;2023-03-01T00:12:10;3.17;;;2.85;;
60714;SDS011;46564;53.096;8.246;2023-03-01T00:17:12;2.15;;;1.42;;
60714;SDS011;46564;53.096;8.246;2023-03-01T00:22:13;0.65;;;0.65;;
60714;SDS011;46564;53.096;8.246;2023-03-01T00:27:15;2.50;;;1.65;;
60714;SDS011;46564;53.096;8.246;2023-03-01T00:32:16;0.50;;;0.50;;
60714;SDS011;46564;53.096;8.246;2023-03-01T00:37:18;4.40;;;2.33;;
60714;SDS011;46564;53.096;8.246;2023-03-01T00:42:19;1.67;;;1.15;;
60714;SDS011;46564;53.096;8.246;2023-03-01T00:47:21;2.25;;;1.70;;
60714;SDS011;46564;53.096;8.246;2023-03-01T00:52:23;2.35;;;1.60;;
60714;SDS011;46564;53.096;8.246;2023-03-01T00:57:25;4.35;;;3.35;;
60714;SDS011;46564;53.096;8.246;2023-03-01T01:02:27;3.75;;;3.25;;
60714;SDS011;46564;53.096;8.246;2023-03-01T01:07:28;5.50;;;3.28;;
60714;SDS011;46564;53.096;8.246;2023-03-01T01:12:32;3.47;;;2.72;;
60714;SDS011;46564;53.096;8.246;2023-03-01T01:17:34;3.78;;;3.05;;
60714;SDS011;46564;53.096;8.246;2023-03-01T01:22:36;2.83;;;1.83;;
60714;SDS011;46564;53.096;8.246;2023-03-01T01:27:38;1.38;;;1.15;;
60714;SDS011;46564;53.096;8.246;2023-03-01T01:32:39;0.68;;;0.68;;
60714;SDS011;46564;53.096;8.246;2023-03-01T01:37:43;2.13;;;1.77;;
60714;SDS011;46564;53.096;8.246;2023-03-01T01:42:45;4.60;;;2.70;;
60714;SDS011;46564;53.096;8.246;2023-03-01T01:47:47;1.50;;;1.27;;
60714;SDS011;46564;53.096;8.246;2023-03-01T01:52:50;1.58;;;1.15;;
60714;SDS011;46564;53.096;8.246;2023-03-01T01:57:52;2.47;;;1.35;;
60714;SDS011;46564;53.096;8.246;2023-03-01T02:03:32;2.45;;;1.42;;
60714;SDS011;46564;53.096;8.246;2023-03-01T02:08:27;3.03;;;1.80;;
60714;SDS011;46564;53.096;8.246;2023-03-01T02:13:32;1.85;;;1.17;;
60714;SDS011;46564;53.096;8.246;2023-03-01T02:18:39;1.00;;;0.95;;
60714;SDS011;46564;53.096;8.246;2023-03-01T02:23:41;2.03;;;1.85;;
60714;SDS011;46564;53.096;8.246;2023-03-01T02:28:47;1.33;;;1.17;;
60714;SDS011;46564;53.096;8.246;2023-03-01T02:33:49;0.85;;;0.60;;
60714;SDS011;46564;53.096;8.246;2023-03-01T02:38:51;4.68;;;0.73;;
60714;SDS011;46564;53.096;8.246;2023-03-01T02:43:54;0.77;;;0.77;;
60714;SDS011;46564;53.096;8.246;2023-03-01T02:48:57;2.97;;;2.33;;
60714;SDS011;46564;53.096;8.246;2023-03-01T02:59:00;0.73;;;0.73;;
60714;SDS011;46564;53.096;8.246;2023-03-01T03:04:09;1.38;;;1.05;;
60714;SDS011;46564;53.096;8.246;2023-03-01T03:09:22;4.35;;;2.67;;
60714;SDS011;46564;53.096;8.246;2023-03-01T03:14:23;2.10;;;1.33;;
60714;SDS011;46564;53.096;8.246;2023-03-01T03:19:27;2.85;;;1.95;;
60714;SDS011;46564;53.096;8.246;2023-03-01T03:24:29;0.85;;;0.85;;
60714;SDS011;46564;53.096;8.246;2023-03-01T03:34:42;1.30;;;1.10;;
60714;SDS011;46564;53.096;8.246;2023-03-01T03:39:44;0.70;;;0.70;;
60714;SDS011;46564;53.096;8.246;2023-03-01T03:44:48;2.47;;;2.03;;
60714;SDS011;46564;53.096;8.246;2023-03-01T03:49:53;1.25;;;1.15;;
60714;SDS011;46564;53.096;8.246;2023-03-01T03:54:55;1.60;;;1.50;;
60714;SDS011;46564;53.096;8.246;2023-03-01T03:59:56;1.70;;;1.55;;
60714;SDS011;46564;53.096;8.246;2023-03-01T04:05:01;1.05;;;0.98;;
60714;SDS011;46564;53.096;8.246;2023-03-01T04:10:04;1.40;;;1.10;;
60714;SDS011;46564;53.096;8.246;2023-03-01T04:15:06;1.45;;;1.35;;
60714;SDS011;46564;53.096;8.246;2023-03-01T04:20:15;1.33;;;1.23;;
60714;SDS011;46564;53.096;8.246;2023-03-01T04:25:21;0.70;;;0.70;;
60714;SDS011;46564;53.096;8.246;2023-03-01T04:30:26;0.82;;;0.82;;
60714;SDS011;46564;53.096;8.246;2023-03-01T04:35:33;1.90;;;1.70;;
60714;SDS011;46564;53.096;8.246;2023-03-01T04:40:36;0.80;;;0.73;;
60714;SDS011;46564;53.096;8.246;2023-03-01T04:45:37;0.70;;;0.70;;
60714;SDS011;46564;53.096;8.246;2023-03-01T04:50:39;3.40;;;2.45;;
60714;SDS011;46564;53.096;8.246;2023-03-01T04:55:40;0.75;;;0.60;;
60714;SDS011;46564;53.096;8.246;2023-03-01T05:00:45;2.22;;;2.03;;
60714;SDS011;46564;53.096;8.246;2023-03-01T05:05:47;0.43;;;0.43;;
60714;SDS011;46564;53.096;8.246;2023-03-01T05:10:50;2.33;;;1.90;;
60714;SDS011;46564;53.096;8.246;2023-03-01T05:15:56;1.92;;;0.95;;
60714;SDS011;46564;53.096;8.246;2023-03-01T05:21:05;0.85;;;0.85;;
60714;SDS011;46564;53.096;8.246;2023-03-01T05:26:08;3.22;;;2.45;;
60714;SDS011;46564;53.096;8.246;2023-03-01T05:31:27;3.42;;;2.30;;
60714;SDS011;46564;53.096;8.246;2023-03-01T05:36:29;0.73;;;0.55;;
60714;SDS011;46564;53.096;8.246;2023-03-01T05:41:31;4.18;;;1.55;;
60714;SDS011;46564;53.096;8.246;2023-03-01T05:46:32;2.08;;;1.38;;
60714;SDS011;46564;53.096;8.246;2023-03-01T05:51:33;1.20;;;1.10;;
60714;SDS011;46564;53.096;8.246;2023-03-01T05:56:36;0.93;;;0.85;;
60714;SDS011;46564;53.096;8.246;2023-03-01T06:01:37;5.53;;;1.95;;
60714;SDS011;46564;53.096;8.246;2023-03-01T06:06:39;3.22;;;1.30;;
60714;SDS011;46564;53.096;8.246;2023-03-01T06:11:40;1.55;;;0.75;;
60714;SDS011;46564;53.096;8.246;2023-03-01T06:16:42;1.15;;;0.90;;
60714;SDS011;46564;53.096;8.246;2023-03-01T06:21:43;0.45;;;0.45;;
60714;SDS011;46564;53.096;8.246;2023-03-01T06:26:45;0.65;;;0.65;;
60714;SDS011;46564;53.096;8.246;2023-03-01T06:31:48;1.40;;;1.30;;
60714;SDS011;46564;53.096;8.246;2023-03-01T06:36:50;1.58;;;1.48;;
60714;SDS011;46564;53.096;8.246;2023-03-01T06:41:51;2.58;;;0.93;;
60714;SDS011;46564;53.096;8.246;2023-03-01T06:46:55;1.38;;;1.23;;
60714;SDS011;46564;53.096;8.246;2023-03-01T06:51:56;1.48;;;1.25;;
60714;SDS011;46564;53.096;8.246;2023-03-01T06:56:58;0.98;;;0.98;;
60714;SDS011;46564;53.096;8.246;2023-03-01T07:01:59;1.13;;;0.93;;
60714;SDS011;46564;53.096;8.246;2023-03-01T07:07:00;1.50;;;1.35;;
60714;SDS011;46564;53.096;8.246;2023-03-01T07:12:02;2.78;;;2.35;;
60714;SDS011;46564;53.096;8.246;2023-03-01T07:17:03;1.27;;;1.17;;
60714;SDS011;46564;53.096;8.246;2023-03-01T07:22:05;2.72;;;2.00;;
60714;SDS011;46564;53.096;8.246;2023-03-01T07:27:09;0.77;;;0.77;;
60714;SDS011;46564;53.096;8.246;2023-03-01T07:32:10;2.95;;;1.38;;
60714;SDS011;46564;53.096;8.246;2023-03-01T07:37:12;1.73;;;1.63;;
60714;SDS011;46564;53.096;8.246;2023-03-01T07:42:13;2.28;;;1.05;;
60714;SDS011;46564;53.096;8.246;2023-03-01T07:47:15;1.77;;;1.65;;
60714;SDS011;46564;53.096;8.246;2023-03-01T07:52:16;2.55;;;1.80;;
60714;SDS011;46564;53.096;8.246;2023-03-01T07:57:18;2.65;;;2.17;;
60714;SDS011;46564;53.096;8.246;2023-03-01T08:02:19;2.08;;;1.63;;
60714;SDS011;46564;53.096;8.246;2023-03-01T08:07:20;1.45;;;1.35;;
60714;SDS011;46564;53.096;8.246;2023-03-01T08:12:22;1.38;;;1.10;;
60714;SDS011;46564;53.096;8.246;2023-03-01T08:17:24;1.63;;;0.88;;
60714;SDS011;46564;53.096;8.246;2023-03-01T08:22:26;3.53;;;2.58;;
60714;SDS011;46564;53.096;8.246;2023-03-01T08:27:27;4.13;;;2.28;;
60714;SDS011;46564;53.096;8.246;2023-03-01T08:32:29;4.05;;;1.98;;
60714;SDS011;46564;53.096;8.246;2023-03-01T08:37:31;2.55;;;1.88;;
60714;SDS011;46564;53.096;8.246;2023-03-01T08:42:34;5.85;;;2.90;;
60714;SDS011;46564;53.096;8.246;2023-03-01T08:47:36;6.15;;;2.65;;
60714;SDS011;46564;53.096;8.246;2023-03-01T08:52:37;2.78;;;2.00;;
60714;SDS011;46564;53.096;8.246;2023-03-01T08:57:39;3.42;;;2.33;;
60714;SDS011;46564;53.096;8.246;2023-03-01T09:02:42;5.05;;;2.85;;
60714;SDS011;46564;53.096;8.246;2023-03-01T09:07:44;2.95;;;2.08;;
60714;SDS011;46564;53.096;8.246;2023-03-01T09:12:48;3.88;;;2.42;;
60714;SDS011;46564;53.096;8.246;2023-03-01T09:17:50;4.45;;;2.58;;
60714;SDS011;46564;53.096;8.246;2023-03-01T09:22:53;5.47;;;2.83;;
60714;SDS011;46564;53.096;8.246;2023-03-01T09:27:55;4.85;;;2.55;;
60714;SDS011;46564;53.096;8.246;2023-03-01T09:32:57;8.25;;;2.38;;
60714;SDS011;46564;53.096;8.246;2023-03-01T09:37:58;5.18;;;2.72;;
60714;SDS011;46564;53.096;8.246;2023-03-01T09:48:12;3.97;;;2.40;;
60714;SDS011;46564;53.096;8.246;2023-03-01T09:53:21;6.90;;;2.20;;
60714;SDS011;46564;53.096;8.246;2023-03-01T09:58:37;2.83;;;1.70;;
60714;SDS011;46564;53.096;8.246;2023-03-01T10:03:43;2.53;;;1.15;;
60714;SDS011;46564;53.096;8.246;2023-03-01T10:09:02;4.72;;;1.73;;
60714;SDS011;46564;53.096;8.246;2023-03-01T10:24:43;1.35;;;1.00;;
60714;SDS011;46564;53.096;8.246;2023-03-01T10:34:49;3.03;;;1.80;;
60714;SDS011;46564;53.096;8.246;2023-03-01T10:44:56;4.32;;;1.77;;
60714;SDS011;46564;53.096;8.246;2023-03-01T10:50:00;3.50;;;1.83;;
60714;SDS011;46564;53.096;8.246;2023-03-01T10:55:24;3.72;;;1.67;;
60714;SDS011;46564;53.096;8.246;2023-03-01T11:00:45;4.13;;;1.90;;
60714;SDS011;46564;53.096;8.246;2023-03-01T11:16:28;8.07;;;2.17;;
60714;SDS011;46564;53.096;8.246;2023-03-01T11:21:57;4.30;;;1.92;;
60714;SDS011;46564;53.096;8.246;2023-03-01T11:28:17;4.97;;;1.98;;
60714;SDS011;46564;53.096;8.246;2023-03-01T11:38:40;5.32;;;2.58;;
60714;SDS011;46564;53.096;8.246;2023-03-01T11:44:10;4.88;;;2.33;;
60714;SDS011;46564;53.096;8.246;2023-03-01T11:55:12;6.05;;;3.00;;
60714;SDS011;46564;53.096;8.246;2023-03-01T12:06:42;5.75;;;2.75;;
60714;SDS011;46564;53.096;8.246;2023-03-01T12:12:34;5.97;;;2.90;;
60714;SDS011;46564;53.096;8.246;2023-03-01T12:17:47;7.35;;;3.58;;
60714;SDS011;46564;53.096;8.246;2023-03-01T12:39:42;7.82;;;3.05;;
60714;SDS011;46564;53.096;8.246;2023-03-01T12:50:23;7.95;;;2.95;;
60714;SDS011;46564;53.096;8.246;2023-03-01T12:55:31;7.35;;;3.33;;
60714;SDS011;46564;53.096;8.246;2023-03-01T13:11:23;8.00;;;3.83;;
60714;SDS011;46564;53.096;8.246;2023-03-01T13:21:30;9.18;;;3.88;;
60714;SDS011;46564;53.096;8.246;2023-03-01T13:27:08;9.40;;;3.97;;
60714;SDS011;46564;53.096;8.246;2023-03-01T13:32:52;9.05;;;4.18;;
60714;SDS011;46564;53.096;8.246;2023-03-01T13:37:45;8.30;;;3.28;;
60714;SDS011;46564;53.096;8.246;2023-03-01T13:42:51;9.27;;;3.80;;
60714;SDS011;46564;53.096;8.246;2023-03-01T13:59:51;11.43;;;4.05;;
60714;SDS011;46564;53.096;8.246;2023-03-01T14:05:00;10.27;;;3.40;;
60714;SDS011;46564;53.096;8.246;2023-03-01T14:10:03;7.65;;;3.55;;
60714;SDS011;46564;53.096;8.246;2023-03-01T14:15:19;9.35;;;4.40;;
60714;SDS011;46564;53.096;8.246;2023-03-01T14:20:30;10.18;;;4.18;;
60714;SDS011;46564;53.096;8.246;2023-03-01T14:25:47;8.60;;;3.85;;
60714;SDS011;46564;53.096;8.246;2023-03-01T14:36:54;8.13;;;3.38;;
60714;SDS011;46564;53.096;8.246;2023-03-01T14:42:16;6.57;;;2.90;;
60714;SDS011;46564;53.096;8.246;2023-03-01T14:47:34;6.40;;;3.00;;
60714;SDS011;46564;53.096;8.246;2023-03-01T14:52:52;7.47;;;3.53;;
60714;SDS011;46564;53.096;8.246;2023-03-01T15:08:34;8.30;;;3.47;;
60714;SDS011;46564;53.096;8.246;2023-03-01T15:13:39;8.07;;;3.70;;
60714;SDS011;46564;53.096;8.246;2023-03-01T15:18:51;7.50;;;3.63;;
60714;SDS011;46564;53.096;8.246;2023-03-01T15:29:19;14.18;;;3.90;;
60714;SDS011;46564;53.096;8.246;2023-03-01T15:34:34;8.90;;;4.32;;
60714;SDS011;46564;53.096;8.246;2023-03-01T15:40:27;11.35;;;4.45;;
60714;SDS011;46564;53.096;8.246;2023-03-01T15:45:36;13.65;;;5.00;;
60714;SDS011;46564;53.096;8.246;2023-03-01T15:50:42;7.32;;;3.95;;
60714;SDS011;46564;53.096;8.246;2023-03-01T15:56:16;7.30;;;3.90;;
60714;SDS011;46564;53.096;8.246;2023-03-01T16:01:18;8.05;;;4.05;;
60714;SDS011;46564;53.096;8.246;2023-03-01T16:06:25;9.50;;;4.90;;
60714;SDS011;46564;53.096;8.246;2023-03-01T16:11:27;10.27;;;4.57;;
60714;SDS011;46564;53.096;8.246;2023-03-01T16:16:33;10.05;;;4.65;;
60714;SDS011;46564;53.096;8.246;2023-03-01T16:21:41;10.82;;;5.00;;
60714;SDS011;46564;53.096;8.246;2023-03-01T16:26:45;9.52;;;4.25;;
60714;SDS011;46564;53.096;8.246;2023-03-01T16:31:47;12.13;;;4.72;;
60714;SDS011;46564;53.096;8.246;2023-03-01T16:36:49;9.23;;;4.50;;
60714;SDS011;46564;53.096;8.246;2023-03-01T16:41:51;9.95;;;4.55;;
60714;SDS011;46564;53.096;8.246;2023-03-01T16:46:52;7.65;;;3.85;;
60714;SDS011;46564;53.096;8.246;2023-03-01T16:51:54;8.05;;;4.22;;
60714;SDS011;46564;53.096;8.246;2023-03-01T16:56:55;10.38;;;5.13;;
60714;SDS011;46564;53.096;8.246;2023-03-01T17:01:57;9.82;;;4.28;;
60714;SDS011;46564;53.096;8.246;2023-03-01T17:06:59;8.23;;;4.05;;
60714;SDS011;46564;53.096;8.246;2023-03-01T17:12:01;7.50;;;3.80;;
60714;SDS011;46564;53.096;8.246;2023-03-01T17:17:12;10.93;;;4.72;;
60714;SDS011;46564;53.096;8.246;2023-03-01T17:22:41;8.65;;;4.10;;
60714;SDS011;46564;53.096;8.246;2023-03-01T17:28:00;6.90;;;3.78;;
60714;SDS011;46564;53.096;8.246;2023-03-01T17:33:07;7.70;;;4.10;;
60714;SDS011;46564;53.096;8.246;2023-03-01T17:38:18;8.30;;;3.17;;
60714;SDS011;46564;53.096;8.246;2023-03-01T17:49:26;6.68;;;3.28;;
60714;SDS011;46564;53.096;8.246;2023-03-01T17:55:08;8.20;;;3.53;;
60714;SDS011;46564;53.096;8.246;2023-03-01T18:07:31;5.25;;;3.00;;
60714;SDS011;46564;53.096;8.246;2023-03-01T18:20:02;7.63;;;3.22;;
60714;SDS011;46564;53.096;8.246;2023-03-01T18:25:17;5.97;;;3.03;;
60714;SDS011;46564;53.096;8.246;2023-03-01T18:42:34;3.58;;;2.05;;
60714;SDS011;46564;53.096;8.246;2023-03-01T18:47:43;5.20;;;3.20;;
60714;SDS011;46564;53.096;8.246;2023-03-01T18:53:26;2.78;;;1.80;;
60714;SDS011;46564;53.096;8.246;2023-03-01T18:58:28;4.95;;;2.38;;
60714;SDS011;46564;53.096;8.246;2023-03-01T19:03:30;3.60;;;2.17;;
60714;SDS011;46564;53.096;8.246;2023-03-01T19:08:32;2.38;;;1.33;;
60714;SDS011;46564;53.096;8.246;2023-03-01T19:13:34;2.10;;;1.83;;
60714;SDS011;46564;53.096;8.246;2023-03-01T19:18:39;3.10;;;2.22;;
60714;SDS011;46564;53.096;8.246;2023-03-01T19:23:43;6.32;;;3.20;;
60714;SDS011;46564;53.096;8.246;2023-03-01T19:28:45;2.22;;;1.73;;
60714;SDS011;46564;53.096;8.246;2023-03-01T19:33:47;4.15;;;1.83;;
60714;SDS011;46564;53.096;8.246;2023-03-01T19:38:50;6.35;;;2.95;;
60714;SDS011;46564;53.096;8.246;2023-03-01T19:43:51;4.47;;;2.67;;
60714;SDS011;46564;53.096;8.246;2023-03-01T19:48:54;3.92;;;2.35;;
60714;SDS011;46564;53.096;8.246;2023-03-01T19:53:57;0.95;;;0.70;;
60714;SDS011;46564;53.096;8.246;2023-03-01T19:58:59;2.75;;;1.52;;
60714;SDS011;46564;53.096;8.246;2023-03-01T20:04:07;2.80;;;1.42;;
60714;SDS011;46564;53.096;8.246;2023-03-01T20:09:10;4.25;;;2.72;;
60714;SDS011;46564;53.096;8.246;2023-03-01T20:14:22;2.45;;;1.35;;
60714;SDS011;46564;53.096;8.246;2023-03-01T20:19:24;9.27;;;1.90;;
60714;SDS011;46564;53.096;8.246;2023-03-01T20:24:32;4.55;;;3.03;;
60714;SDS011;46564;53.096;8.246;2023-03-01T20:29:38;3.15;;;1.88;;
60714;SDS011;46564;53.096;8.246;2023-03-01T20:34:48;4.13;;;1.73;;
60714;SDS011;46564;53.096;8.246;2023-03-01T20:39:59;6.03;;;3.10;;
60714;SDS011;46564;53.096;8.246;2023-03-01T20:45:01;5.40;;;2.85;;
60714;SDS011;46564;53.096;8.246;2023-03-01T20:50:03;5.47;;;3.00;;
60714;SDS011;46564;53.096;8.246;2023-03-01T20:55:07;8.50;;;3.08;;
60714;SDS011;46564;53.096;8.246;2023-03-01T21:00:15;3.42;;;2.53;;
60714;SDS011;46564;53.096;8.246;2023-03-01T21:05:21;4.85;;;2.97;;
60714;SDS011;46564;53.096;8.246;2023-03-01T21:10:25;6.72;;;4.13;;
60714;SDS011;46564;53.096;8.246;2023-03-01T21:15:30;4.05;;;2.90;;
60714;SDS011;46564;53.096;8.246;2023-03-01T21:20:32;3.38;;;2.47;;
60714;SDS011;46564;53.096;8.246;2023-03-01T21:31:33;7.40;;;4.60;;
60714;SDS011;46564;53.096;8.246;2023-03-01T21:36:41;5.43;;;3.22;;
60714;SDS011;46564;53.096;8.246;2023-03-01T21:41:49;6.20;;;3.92;;
60714;SDS011;46564;53.096;8.246;2023-03-01T21:46:57;7.07;;;4.30;;
60714;SDS011;46564;53.096;8.246;2023-03-01T21:51:59;10.75;;;4.57;;
60714;SDS011;46564;53.096;8.246;2023-03-01T21:57:02;9.10;;;4.53;;
60714;SDS011;46564;53.096;8.246;2023-03-01T22:12:49;5.47;;;3.90;;
60714;SDS011;46564;53.096;8.246;2023-03-01T22:17:53;3.50;;;2.88;;
60714;SDS011;46564;53.096;8.246;2023-03-01T22:22:57;12.63;;;4.30;;
60714;SDS011;46564;53.096;8.246;2023-03-01T22:28:04;10.52;;;4.57;;
60714;SDS011;46564;53.096;8.246;2023-03-01T22:33:06;6.78;;;3.63;;
60714;SDS011;46564;53.096;8.246;2023-03-01T22:38:09;4.10;;;3.08;;
60714;SDS011;46564;53.096;8.246;2023-03-01T22:43:12;6.68;;;4.10;;
60714;SDS011;46564;53.096;8.246;2023-03-01T22:48:14;3.08;;;2.45;;
60714;SDS011;46564;53.096;8.246;2023-03-01T22:53:15;5.75;;;3.03;;
60714;SDS011;46564;53.096;8.246;2023-03-01T22:58:23;14.50;;;2.35;;
60714;SDS011;46564;53.096;8.246;2023-03-01T23:03:33;6.38;;;3.92;;
60714;SDS011;46564;53.096;8.246;2023-03-01T23:08:41;7.22;;;3.58;;
60714;SDS011;46564;53.096;8.246;2023-03-01T23:13:46;4.65;;;3.70;;
60714;SDS011;46564;53.096;8.246;2023-03-01T23:18:54;4.18;;;2.50;;
60714;SDS011;46564;53.096;8.246;2023-03-01T23:24:07;3.45;;;2.03;;
60714;SDS011;46564;53.096;8.246;2023-03-01T23:29:12;3.97;;;2.40;;
60714;SDS011;46564;53.096;8.246;2023-03-01T23:34:14;2.70;;;1.90;;
60714;SDS011;46564;53.096;8.246;2023-03-01T23:39:15;6.78;;;2.65;;
60714;SDS011;46564;53.096;8.246;2023-03-01T23:44:20;3.95;;;2.47;;
60714;SDS011;46564;53.096;8.246;2023-03-01T23:49:22;2.25;;;1.63;;
60714;SDS011;46564;53.096;8.246;2023-03-01T23:54:31;5.68;;;2.83;;
60714;SDS011;46564;53.096;8.246;2023-03-01T23:59:39;4.47;;;3.03;;
